sensor_id;sensor_type;location;lat;lon;timestamp;pressure;altitude;pressure_sealevel;temperature
70050;BMP180;57391;51.306;22.680;2022-10-16T00:01:43;99967.80;;;12.60
70050;BMP180;57391;51.306;22.680;2022-10-16T00:04:10;99971.40;;;12.60
70050;BMP180;57391;51.306;22.680;2022-10-16T00:06:38;99976.40;;;12.60
70050;BMP180;57391;51.306;22.680;2022-10-16T00:09:06;99977.20;;;12.56
70050;BMP180;57391;51.306;22.680;2022-10-16T00:11:37;99980.80;;;12.50
70050;BMP180;57391;51.306;22.680;2022-10-16T00:14:12;99977.80;;;12.46
70050;BMP180;57391;51.306;22.680;2022-10-16T00:16:40;99983.20;;;12.40
70050;BMP180;57391;51.306;22.680;2022-10-16T00:19:10;99984.60;;;12.40
70050;BMP180;57391;51.306;22.680;2022-10-16T00:21:38;99983.80;;;12.38
70050;BMP180;57391;51.306;22.680;2022-10-16T00:24:08;99981.00;;;12.30
70050;BMP180;57391;51.306;22.680;2022-10-16T00:26:37;99977.60;;;12.30
70050;BMP180;57391;51.306;22.680;2022-10-16T00:29:06;99986.40;;;12.20
70050;BMP180;57391;51.306;22.680;2022-10-16T00:31:34;99983.80;;;12.14
70050;BMP180;57391;51.306;22.680;2022-10-16T00:34:02;99980.00;;;12.10
70050;BMP180;57391;51.306;22.680;2022-10-16T00:36:29;99980.00;;;12.00
70050;BMP180;57391;51.306;22.680;2022-10-16T00:38:58;99978.20;;;11.98
70050;BMP180;57391;51.306;22.680;2022-10-16T00:41:27;99981.00;;;11.90
70050;BMP180;57391;51.306;22.680;2022-10-16T00:44:43;99990.60;;;11.88
70050;BMP180;57391;51.306;22.680;2022-10-16T00:47:28;99997.40;;;11.80
70050;BMP180;57391;51.306;22.680;2022-10-16T00:52:34;99998.60;;;11.80
70050;BMP180;57391;51.306;22.680;2022-10-16T00:55:04;100002.00;;;11.80
70050;BMP180;57391;51.306;22.680;2022-10-16T00:57:33;100006.00;;;11.80
70050;BMP180;57391;51.306;22.680;2022-10-16T01:00:04;100007.20;;;11.80
70050;BMP180;57391;51.306;22.680;2022-10-16T01:02:32;100006.60;;;11.80
70050;BMP180;57391;51.306;22.680;2022-10-16T01:04:59;100009.00;;;11.70
70050;BMP180;57391;51.306;22.680;2022-10-16T01:08:12;100015.60;;;11.70
70050;BMP180;57391;51.306;22.680;2022-10-16T01:10:59;100016.20;;;11.70
70050;BMP180;57391;51.306;22.680;2022-10-16T01:13:41;100020.40;;;11.70
70050;BMP180;57391;51.306;22.680;2022-10-16T01:16:32;100017.00;;;11.70
70050;BMP180;57391;51.306;22.680;2022-10-16T01:19:12;100020.60;;;11.70
70050;BMP180;57391;51.306;22.680;2022-10-16T01:21:44;100018.00;;;11.70
70050;BMP180;57391;51.306;22.680;2022-10-16T01:24:36;100019.80;;;11.70
70050;BMP180;57391;51.306;22.680;2022-10-16T01:27:27;100015.00;;;11.60
70050;BMP180;57391;51.306;22.680;2022-10-16T01:30:07;100012.20;;;11.60
70050;BMP180;57391;51.306;22.680;2022-10-16T01:35:37;100003.80;;;11.50
70050;BMP180;57391;51.306;22.680;2022-10-16T01:38:15;99994.80;;;11.50
70050;BMP180;57391;51.306;22.680;2022-10-16T01:40:51;99990.40;;;11.48
70050;BMP180;57391;51.306;22.680;2022-10-16T01:43:26;99992.20;;;11.40
70050;BMP180;57391;51.306;22.680;2022-10-16T01:45:56;99997.40;;;11.40
70050;BMP180;57391;51.306;22.680;2022-10-16T01:48:24;100000.60;;;11.38
70050;BMP180;57391;51.306;22.680;2022-10-16T01:51:08;100002.40;;;11.30
70050;BMP180;57391;51.306;22.680;2022-10-16T01:53:37;99998.40;;;11.30
70050;BMP180;57391;51.306;22.680;2022-10-16T01:56:11;100000.00;;;11.30
70050;BMP180;57391;51.306;22.680;2022-10-16T01:58:47;100005.40;;;11.28
70050;BMP180;57391;51.306;22.680;2022-10-16T02:01:20;100007.00;;;11.20
70050;BMP180;57391;51.306;22.680;2022-10-16T02:03:54;100004.80;;;11.20
70050;BMP180;57391;51.306;22.680;2022-10-16T02:06:24;100008.20;;;11.20
70050;BMP180;57391;51.306;22.680;2022-10-16T02:08:53;100009.60;;;11.20
70050;BMP180;57391;51.306;22.680;2022-10-16T02:11:20;100005.20;;;11.20
70050;BMP180;57391;51.306;22.680;2022-10-16T02:13:58;100008.40;;;11.18
70050;BMP180;57391;51.306;22.680;2022-10-16T02:16:52;100015.20;;;11.18
70050;BMP180;57391;51.306;22.680;2022-10-16T02:19:20;100013.40;;;11.10
70050;BMP180;57391;51.306;22.680;2022-10-16T02:22:03;100008.00;;;11.10
70050;BMP180;57391;51.306;22.680;2022-10-16T02:25:02;100002.00;;;11.02
70050;BMP180;57391;51.306;22.680;2022-10-16T02:28:16;100007.40;;;11.00
70050;BMP180;57391;51.306;22.680;2022-10-16T02:30:52;100011.20;;;11.00
70050;BMP180;57391;51.306;22.680;2022-10-16T02:33:23;100008.40;;;11.00
70050;BMP180;57391;51.306;22.680;2022-10-16T02:35:53;100006.80;;;11.00
70050;BMP180;57391;51.306;22.680;2022-10-16T02:38:22;100012.20;;;11.00
70050;BMP180;57391;51.306;22.680;2022-10-16T02:40:50;100016.60;;;11.00
70050;BMP180;57391;51.306;22.680;2022-10-16T02:43:18;100017.20;;;11.00
70050;BMP180;57391;51.306;22.680;2022-10-16T02:45:45;100020.80;;;11.00
70050;BMP180;57391;51.306;22.680;2022-10-16T02:48:12;100032.40;;;11.00
70050;BMP180;57391;51.306;22.680;2022-10-16T02:50:39;100034.00;;;10.96
70050;BMP180;57391;51.306;22.680;2022-10-16T02:53:06;100036.60;;;10.94
70050;BMP180;57391;51.306;22.680;2022-10-16T02:55:33;100034.60;;;10.90
70050;BMP180;57391;51.306;22.680;2022-10-16T02:58:00;100031.40;;;10.90
70050;BMP180;57391;51.306;22.680;2022-10-16T03:00:27;100022.00;;;10.90
70050;BMP180;57391;51.306;22.680;2022-10-16T03:02:55;100013.00;;;10.90
70050;BMP180;57391;51.306;22.680;2022-10-16T03:05:22;100016.00;;;10.90
70050;BMP180;57391;51.306;22.680;2022-10-16T03:07:49;100023.20;;;10.90
70050;BMP180;57391;51.306;22.680;2022-10-16T03:10:16;100019.80;;;10.90
70050;BMP180;57391;51.306;22.680;2022-10-16T03:12:43;100024.20;;;10.90
70050;BMP180;57391;51.306;22.680;2022-10-16T03:15:10;100022.60;;;10.90
70050;BMP180;57391;51.306;22.680;2022-10-16T03:17:38;100022.20;;;10.90
70050;BMP180;57391;51.306;22.680;2022-10-16T03:20:05;100024.20;;;10.90
70050;BMP180;57391;51.306;22.680;2022-10-16T03:22:33;100025.00;;;10.90
70050;BMP180;57391;51.306;22.680;2022-10-16T03:25:00;100022.40;;;10.90
70050;BMP180;57391;51.306;22.680;2022-10-16T03:27:27;100028.60;;;10.90
70050;BMP180;57391;51.306;22.680;2022-10-16T03:29:54;100031.80;;;10.90
70050;BMP180;57391;51.306;22.680;2022-10-16T03:32:21;100035.20;;;10.90
70050;BMP180;57391;51.306;22.680;2022-10-16T03:34:48;100036.80;;;10.90
70050;BMP180;57391;51.306;22.680;2022-10-16T03:37:15;100041.00;;;10.90
70050;BMP180;57391;51.306;22.680;2022-10-16T03:39:42;100042.60;;;10.90
70050;BMP180;57391;51.306;22.680;2022-10-16T03:42:09;100042.20;;;10.88
70050;BMP180;57391;51.306;22.680;2022-10-16T03:44:36;100045.00;;;10.90
70050;BMP180;57391;51.306;22.680;2022-10-16T03:47:03;100047.40;;;10.82
70050;BMP180;57391;51.306;22.680;2022-10-16T03:49:31;100050.20;;;10.84
70050;BMP180;57391;51.306;22.680;2022-10-16T03:51:57;100050.60;;;10.86
70050;BMP180;57391;51.306;22.680;2022-10-16T03:54:25;100053.20;;;10.82
70050;BMP180;57391;51.306;22.680;2022-10-16T03:56:51;100048.00;;;10.86
70050;BMP180;57391;51.306;22.680;2022-10-16T03:59:19;100046.40;;;10.90
70050;BMP180;57391;51.306;22.680;2022-10-16T04:01:45;100048.60;;;10.90
70050;BMP180;57391;51.306;22.680;2022-10-16T04:04:13;100048.80;;;10.90
70050;BMP180;57391;51.306;22.680;2022-10-16T04:06:40;100051.20;;;10.90
70050;BMP180;57391;51.306;22.680;2022-10-16T04:09:06;100053.60;;;10.90
70050;BMP180;57391;51.306;22.680;2022-10-16T04:11:34;100052.20;;;10.90
70050;BMP180;57391;51.306;22.680;2022-10-16T04:14:00;100050.60;;;10.90
70050;BMP180;57391;51.306;22.680;2022-10-16T04:16:28;100052.20;;;10.92
70050;BMP180;57391;51.306;22.680;2022-10-16T04:18:55;100055.20;;;11.00
70050;BMP180;57391;51.306;22.680;2022-10-16T04:21:22;100060.00;;;11.00
70050;BMP180;57391;51.306;22.680;2022-10-16T04:23:49;100066.60;;;11.00
70050;BMP180;57391;51.306;22.680;2022-10-16T04:26:16;100066.40;;;11.00
70050;BMP180;57391;51.306;22.680;2022-10-16T04:28:43;100064.60;;;11.04
70050;BMP180;57391;51.306;22.680;2022-10-16T04:31:10;100068.40;;;11.10
70050;BMP180;57391;51.306;22.680;2022-10-16T04:33:37;100070.00;;;11.10
70050;BMP180;57391;51.306;22.680;2022-10-16T04:36:05;100078.20;;;11.10
70050;BMP180;57391;51.306;22.680;2022-10-16T04:38:32;100079.00;;;11.20
70050;BMP180;57391;51.306;22.680;2022-10-16T04:41:00;100081.20;;;11.20
70050;BMP180;57391;51.306;22.680;2022-10-16T04:43:27;100078.20;;;11.20
70050;BMP180;57391;51.306;22.680;2022-10-16T04:45:54;100082.40;;;11.20
70050;BMP180;57391;51.306;22.680;2022-10-16T04:48:22;100082.80;;;11.22
70050;BMP180;57391;51.306;22.680;2022-10-16T04:50:49;100084.60;;;11.30
70050;BMP180;57391;51.306;22.680;2022-10-16T04:53:16;100087.80;;;11.30
70050;BMP180;57391;51.306;22.680;2022-10-16T04:55:43;100087.60;;;11.30
70050;BMP180;57391;51.306;22.680;2022-10-16T04:58:10;100087.20;;;11.30
70050;BMP180;57391;51.306;22.680;2022-10-16T05:00:37;100087.00;;;11.32
70050;BMP180;57391;51.306;22.680;2022-10-16T05:03:05;100090.60;;;11.40
70050;BMP180;57391;51.306;22.680;2022-10-16T05:05:36;100089.80;;;11.40
70050;BMP180;57391;51.306;22.680;2022-10-16T05:08:03;100091.20;;;11.44
70050;BMP180;57391;51.306;22.680;2022-10-16T05:10:31;100087.80;;;11.50
70050;BMP180;57391;51.306;22.680;2022-10-16T05:12:58;100086.40;;;11.60
70050;BMP180;57391;51.306;22.680;2022-10-16T05:15:25;100086.80;;;11.70
70050;BMP180;57391;51.306;22.680;2022-10-16T05:17:53;100087.40;;;11.80
70050;BMP180;57391;51.306;22.680;2022-10-16T05:20:22;100084.00;;;11.90
70050;BMP180;57391;51.306;22.680;2022-10-16T05:22:50;100090.80;;;12.02
70050;BMP180;57391;51.306;22.680;2022-10-16T05:25:17;100098.00;;;12.28
70050;BMP180;57391;51.306;22.680;2022-10-16T05:27:48;100102.20;;;12.52
70050;BMP180;57391;51.306;22.680;2022-10-16T05:30:17;100101.20;;;12.80
70050;BMP180;57391;51.306;22.680;2022-10-16T05:32:49;100107.60;;;12.98
70050;BMP180;57391;51.306;22.680;2022-10-16T05:35:18;100106.60;;;13.00
70050;BMP180;57391;51.306;22.680;2022-10-16T05:37:45;100099.80;;;13.00
70050;BMP180;57391;51.306;22.680;2022-10-16T05:40:14;100106.60;;;13.20
70050;BMP180;57391;51.306;22.680;2022-10-16T05:42:41;100107.60;;;13.30
70050;BMP180;57391;51.306;22.680;2022-10-16T05:45:11;100113.60;;;13.20
70050;BMP180;57391;51.306;22.680;2022-10-16T05:47:39;100111.20;;;13.20
70050;BMP180;57391;51.306;22.680;2022-10-16T05:50:07;100117.20;;;13.10
70050;BMP180;57391;51.306;22.680;2022-10-16T05:52:34;100124.00;;;13.10
70050;BMP180;57391;51.306;22.680;2022-10-16T05:55:02;100123.80;;;13.00
70050;BMP180;57391;51.306;22.680;2022-10-16T05:57:29;100127.00;;;13.00
70050;BMP180;57391;51.306;22.680;2022-10-16T05:59:56;100130.20;;;13.00
70050;BMP180;57391;51.306;22.680;2022-10-16T06:02:24;100136.20;;;12.98
70050;BMP180;57391;51.306;22.680;2022-10-16T06:04:52;100138.80;;;12.90
70050;BMP180;57391;51.306;22.680;2022-10-16T06:07:23;100143.40;;;12.90
70050;BMP180;57391;51.306;22.680;2022-10-16T06:09:52;100146.00;;;12.90
70050;BMP180;57391;51.306;22.680;2022-10-16T06:12:20;100149.20;;;12.90
70050;BMP180;57391;51.306;22.680;2022-10-16T06:14:47;100157.00;;;12.90
70050;BMP180;57391;51.306;22.680;2022-10-16T06:17:15;100160.60;;;12.90
70050;BMP180;57391;51.306;22.680;2022-10-16T06:19:42;100162.00;;;12.88
70050;BMP180;57391;51.306;22.680;2022-10-16T06:22:10;100160.40;;;12.88
70050;BMP180;57391;51.306;22.680;2022-10-16T06:24:38;100164.40;;;12.88
70050;BMP180;57391;51.306;22.680;2022-10-16T06:27:05;100167.20;;;12.86
70050;BMP180;57391;51.306;22.680;2022-10-16T06:29:32;100172.80;;;12.86
70050;BMP180;57391;51.306;22.680;2022-10-16T06:31:59;100177.80;;;12.80
70050;BMP180;57391;51.306;22.680;2022-10-16T06:34:26;100182.40;;;12.80
70050;BMP180;57391;51.306;22.680;2022-10-16T06:36:54;100184.20;;;12.80
70050;BMP180;57391;51.306;22.680;2022-10-16T06:39:21;100185.20;;;12.80
70050;BMP180;57391;51.306;22.680;2022-10-16T06:41:48;100184.80;;;12.80
70050;BMP180;57391;51.306;22.680;2022-10-16T06:44:15;100185.20;;;12.82
70050;BMP180;57391;51.306;22.680;2022-10-16T06:46:43;100188.00;;;12.90
70050;BMP180;57391;51.306;22.680;2022-10-16T06:49:10;100189.40;;;12.86
70050;BMP180;57391;51.306;22.680;2022-10-16T06:51:37;100196.40;;;12.90
70050;BMP180;57391;51.306;22.680;2022-10-16T06:54:07;100203.20;;;12.90
70050;BMP180;57391;51.306;22.680;2022-10-16T06:56:36;100197.00;;;12.90
70050;BMP180;57391;51.306;22.680;2022-10-16T06:59:03;100192.60;;;12.94
70050;BMP180;57391;51.306;22.680;2022-10-16T07:01:32;100195.80;;;13.00
70050;BMP180;57391;51.306;22.680;2022-10-16T07:04:00;100194.80;;;13.00
70050;BMP180;57391;51.306;22.680;2022-10-16T07:06:32;100199.20;;;13.10
70050;BMP180;57391;51.306;22.680;2022-10-16T07:09:06;100193.40;;;13.16
70050;BMP180;57391;51.306;22.680;2022-10-16T07:11:34;100197.60;;;13.20
70050;BMP180;57391;51.306;22.680;2022-10-16T07:14:03;100199.80;;;13.28
70050;BMP180;57391;51.306;22.680;2022-10-16T07:16:32;100198.40;;;13.30
70050;BMP180;57391;51.306;22.680;2022-10-16T07:19:02;100205.40;;;13.40
70050;BMP180;57391;51.306;22.680;2022-10-16T07:21:33;100208.80;;;13.50
70050;BMP180;57391;51.306;22.680;2022-10-16T07:24:06;100215.80;;;13.60
70050;BMP180;57391;51.306;22.680;2022-10-16T07:26:36;100211.60;;;13.70
70050;BMP180;57391;51.306;22.680;2022-10-16T07:29:13;100214.20;;;13.80
70050;BMP180;57391;51.306;22.680;2022-10-16T07:31:41;100225.80;;;13.90
70050;BMP180;57391;51.306;22.680;2022-10-16T07:34:10;100224.80;;;14.00
70050;BMP180;57391;51.306;22.680;2022-10-16T07:36:38;100228.40;;;14.10
70050;BMP180;57391;51.306;22.680;2022-10-16T07:39:06;100232.00;;;14.20
70050;BMP180;57391;51.306;22.680;2022-10-16T07:41:33;100232.00;;;14.30
70050;BMP180;57391;51.306;22.680;2022-10-16T07:44:04;100234.80;;;14.56
70050;BMP180;57391;51.306;22.680;2022-10-16T07:46:31;100235.80;;;14.90
70050;BMP180;57391;51.306;22.680;2022-10-16T07:49:00;100236.60;;;15.22
70050;BMP180;57391;51.306;22.680;2022-10-16T07:51:27;100239.20;;;15.50
70050;BMP180;57391;51.306;22.680;2022-10-16T07:53:55;100241.80;;;15.60
70050;BMP180;57391;51.306;22.680;2022-10-16T07:56:22;100239.00;;;15.60
70050;BMP180;57391;51.306;22.680;2022-10-16T07:58:51;100240.80;;;15.60
70050;BMP180;57391;51.306;22.680;2022-10-16T08:01:18;100233.40;;;15.60
70050;BMP180;57391;51.306;22.680;2022-10-16T08:03:51;100228.40;;;15.62
70050;BMP180;57391;51.306;22.680;2022-10-16T08:06:21;100219.60;;;15.82
70050;BMP180;57391;51.306;22.680;2022-10-16T08:08:51;100214.80;;;16.16
70050;BMP180;57391;51.306;22.680;2022-10-16T08:11:22;100211.00;;;16.68
70050;BMP180;57391;51.306;22.680;2022-10-16T08:13:50;100215.00;;;17.12
70050;BMP180;57391;51.306;22.680;2022-10-16T08:16:17;100218.00;;;17.56
70050;BMP180;57391;51.306;22.680;2022-10-16T08:18:46;100213.20;;;17.88
70050;BMP180;57391;51.306;22.680;2022-10-16T08:21:18;100214.80;;;18.16
70050;BMP180;57391;51.306;22.680;2022-10-16T08:23:46;100218.60;;;18.42
70050;BMP180;57391;51.306;22.680;2022-10-16T08:26:13;100224.40;;;18.70
70050;BMP180;57391;51.306;22.680;2022-10-16T08:28:41;100225.60;;;18.92
70050;BMP180;57391;51.306;22.680;2022-10-16T08:31:15;100229.60;;;19.18
70050;BMP180;57391;51.306;22.680;2022-10-16T08:33:44;100230.60;;;19.50
70050;BMP180;57391;51.306;22.680;2022-10-16T08:36:15;100238.40;;;19.68
70050;BMP180;57391;51.306;22.680;2022-10-16T08:38:43;100239.80;;;19.80
70050;BMP180;57391;51.306;22.680;2022-10-16T08:47:45;100248.40;;;20.60
70050;BMP180;57391;51.306;22.680;2022-10-16T08:50:25;100259.40;;;20.80
70050;BMP180;57391;51.306;22.680;2022-10-16T08:52:55;100260.40;;;21.00
70050;BMP180;57391;51.306;22.680;2022-10-16T08:57:56;100259.40;;;21.28
70050;BMP180;57391;51.306;22.680;2022-10-16T09:00:26;100257.60;;;21.40
70050;BMP180;57391;51.306;22.680;2022-10-16T09:08:59;100261.60;;;21.70
70050;BMP180;57391;51.306;22.680;2022-10-16T09:16:56;100273.80;;;21.80
70050;BMP180;57391;51.306;22.680;2022-10-16T09:19:40;100278.20;;;21.80
70050;BMP180;57391;51.306;22.680;2022-10-16T09:22:15;100288.40;;;21.80
70050;BMP180;57391;51.306;22.680;2022-10-16T09:24:43;100291.00;;;21.72
70050;BMP180;57391;51.306;22.680;2022-10-16T09:27:12;100288.40;;;21.70
70050;BMP180;57391;51.306;22.680;2022-10-16T09:29:41;100296.40;;;21.70
70050;BMP180;57391;51.306;22.680;2022-10-16T09:32:18;100293.20;;;21.70
70050;BMP180;57391;51.306;22.680;2022-10-16T09:34:55;100296.00;;;21.60
70050;BMP180;57391;51.306;22.680;2022-10-16T09:37:25;100290.80;;;21.40
70050;BMP180;57391;51.306;22.680;2022-10-16T09:39:54;100296.20;;;21.30
70050;BMP180;57391;51.306;22.680;2022-10-16T09:42:26;100295.80;;;21.10
70050;BMP180;57391;51.306;22.680;2022-10-16T09:44:54;100294.20;;;21.10
70050;BMP180;57391;51.306;22.680;2022-10-16T09:47:31;100289.40;;;21.00
70050;BMP180;57391;51.306;22.680;2022-10-16T09:50:19;100295.00;;;20.90
70050;BMP180;57391;51.306;22.680;2022-10-16T09:52:47;100286.20;;;20.80
70050;BMP180;57391;51.306;22.680;2022-10-16T09:55:17;100287.40;;;20.80
70050;BMP180;57391;51.306;22.680;2022-10-16T09:57:54;100290.00;;;20.70
70050;BMP180;57391;51.306;22.680;2022-10-16T10:00:25;100283.40;;;20.60
70050;BMP180;57391;51.306;22.680;2022-10-16T10:02:54;100291.60;;;20.58
70050;BMP180;57391;51.306;22.680;2022-10-16T10:05:28;100288.80;;;20.50
70050;BMP180;57391;51.306;22.680;2022-10-16T10:08:02;100281.80;;;20.40
70050;BMP180;57391;51.306;22.680;2022-10-16T10:10:42;100287.80;;;20.36
70050;BMP180;57391;51.306;22.680;2022-10-16T10:13:24;100294.40;;;20.30
70050;BMP180;57391;51.306;22.680;2022-10-16T10:15:54;100301.20;;;20.20
70050;BMP180;57391;51.306;22.680;2022-10-16T10:18:22;100300.40;;;20.20
70050;BMP180;57391;51.306;22.680;2022-10-16T10:21:02;100300.80;;;20.12
70050;BMP180;57391;51.306;22.680;2022-10-16T10:23:32;100304.40;;;20.10
70050;BMP180;57391;51.306;22.680;2022-10-16T10:26:18;100307.40;;;20.10
70050;BMP180;57391;51.306;22.680;2022-10-16T10:29:12;100307.60;;;20.10
70050;BMP180;57391;51.306;22.680;2022-10-16T10:35:15;100306.60;;;20.02
70050;BMP180;57391;51.306;22.680;2022-10-16T10:45:59;100311.20;;;20.08
70050;BMP180;57391;51.306;22.680;2022-10-16T10:55:23;100292.80;;;20.00
70050;BMP180;57391;51.306;22.680;2022-10-16T10:58:38;100291.60;;;20.00
70050;BMP180;57391;51.306;22.680;2022-10-16T11:01:15;100285.00;;;20.00
70050;BMP180;57391;51.306;22.680;2022-10-16T11:06:40;100288.80;;;20.16
70050;BMP180;57391;51.306;22.680;2022-10-16T11:09:38;100283.40;;;20.20
70050;BMP180;57391;51.306;22.680;2022-10-16T11:12:28;100282.20;;;20.22
70050;BMP180;57391;51.306;22.680;2022-10-16T11:18:08;100275.60;;;20.28
70050;BMP180;57391;51.306;22.680;2022-10-16T11:20:54;100282.80;;;20.20
70050;BMP180;57391;51.306;22.680;2022-10-16T11:23:33;100283.20;;;20.10
70050;BMP180;57391;51.306;22.680;2022-10-16T11:26:16;100279.60;;;20.10
70050;BMP180;57391;51.306;22.680;2022-10-16T11:28:54;100285.80;;;20.00
70050;BMP180;57391;51.306;22.680;2022-10-16T11:31:38;100286.20;;;19.92
70050;BMP180;57391;51.306;22.680;2022-10-16T11:42:34;100284.80;;;19.80
70050;BMP180;57391;51.306;22.680;2022-10-16T11:45:18;100280.80;;;19.70
70050;BMP180;57391;51.306;22.680;2022-10-16T11:47:57;100287.40;;;19.68
70050;BMP180;57391;51.306;22.680;2022-10-16T11:50:48;100287.00;;;19.60
70050;BMP180;57391;51.306;22.680;2022-10-16T11:53:28;100287.20;;;19.50
70050;BMP180;57391;51.306;22.680;2022-10-16T11:55:59;100288.80;;;19.50
70050;BMP180;57391;51.306;22.680;2022-10-16T11:58:35;100284.60;;;19.50
70050;BMP180;57391;51.306;22.680;2022-10-16T12:03:47;100280.40;;;19.44
70050;BMP180;57391;51.306;22.680;2022-10-16T12:09:28;100278.20;;;19.40
70050;BMP180;57391;51.306;22.680;2022-10-16T12:11:56;100278.20;;;19.40
70050;BMP180;57391;51.306;22.680;2022-10-16T12:17:01;100270.00;;;19.40
70050;BMP180;57391;51.306;22.680;2022-10-16T12:19:31;100267.00;;;19.40
70050;BMP180;57391;51.306;22.680;2022-10-16T12:22:02;100270.00;;;19.48
70050;BMP180;57391;51.306;22.680;2022-10-16T12:24:41;100269.40;;;19.48
70050;BMP180;57391;51.306;22.680;2022-10-16T12:27:32;100269.00;;;19.50
70050;BMP180;57391;51.306;22.680;2022-10-16T12:30:05;100262.20;;;19.46
70050;BMP180;57391;51.306;22.680;2022-10-16T12:32:39;100262.60;;;19.42
70050;BMP180;57391;51.306;22.680;2022-10-16T12:35:22;100264.20;;;19.42
70050;BMP180;57391;51.306;22.680;2022-10-16T12:37:51;100264.20;;;19.40
70050;BMP180;57391;51.306;22.680;2022-10-16T12:40:32;100263.20;;;19.38
70050;BMP180;57391;51.306;22.680;2022-10-16T12:43:25;100260.40;;;19.30
70050;BMP180;57391;51.306;22.680;2022-10-16T12:46:22;100261.60;;;19.40
70050;BMP180;57391;51.306;22.680;2022-10-16T12:48:52;100265.20;;;19.50
70050;BMP180;57391;51.306;22.680;2022-10-16T12:54:19;100272.60;;;19.70
70050;BMP180;57391;51.306;22.680;2022-10-16T13:12:27;100281.60;;;20.00
70050;BMP180;57391;51.306;22.680;2022-10-16T13:16:11;100279.40;;;20.00
70050;BMP180;57391;51.306;22.680;2022-10-16T13:18:22;100286.00;;;20.00
70050;BMP180;57391;51.306;22.680;2022-10-16T13:29:32;100283.60;;;20.00
70050;BMP180;57391;51.306;22.680;2022-10-16T13:32:07;100285.80;;;20.00
70050;BMP180;57391;51.306;22.680;2022-10-16T13:34:46;100285.40;;;20.00
70050;BMP180;57391;51.306;22.680;2022-10-16T13:37:22;100291.40;;;19.90
70050;BMP180;57391;51.306;22.680;2022-10-16T13:39:50;100290.60;;;19.90
70050;BMP180;57391;51.306;22.680;2022-10-16T13:42:26;100290.00;;;19.80
70050;BMP180;57391;51.306;22.680;2022-10-16T13:44:56;100290.00;;;19.80
70050;BMP180;57391;51.306;22.680;2022-10-16T13:47:27;100285.20;;;19.80
70050;BMP180;57391;51.306;22.680;2022-10-16T13:50:06;100283.80;;;19.80
70050;BMP180;57391;51.306;22.680;2022-10-16T13:52:33;100285.20;;;19.74
70050;BMP180;57391;51.306;22.680;2022-10-16T13:55:01;100281.00;;;19.70
70050;BMP180;57391;51.306;22.680;2022-10-16T13:57:30;100281.60;;;19.70
70050;BMP180;57391;51.306;22.680;2022-10-16T13:59:57;100278.80;;;19.66
70050;BMP180;57391;51.306;22.680;2022-10-16T14:02:42;100282.40;;;19.66
70050;BMP180;57391;51.306;22.680;2022-10-16T14:05:10;100274.40;;;19.64
70050;BMP180;57391;51.306;22.680;2022-10-16T14:07:38;100274.20;;;19.60
70050;BMP180;57391;51.306;22.680;2022-10-16T14:10:20;100271.00;;;19.64
70050;BMP180;57391;51.306;22.680;2022-10-16T14:15:29;100277.40;;;19.60
70050;BMP180;57391;51.306;22.680;2022-10-16T14:17:58;100277.20;;;19.60
70050;BMP180;57391;51.306;22.680;2022-10-16T14:20:31;100275.20;;;19.60
70050;BMP180;57391;51.306;22.680;2022-10-16T14:23:16;100268.60;;;19.60
70050;BMP180;57391;51.306;22.680;2022-10-16T14:25:46;100263.00;;;19.60
70050;BMP180;57391;51.306;22.680;2022-10-16T14:28:20;100258.00;;;19.60
70050;BMP180;57391;51.306;22.680;2022-10-16T14:30:58;100257.60;;;19.50
70050;BMP180;57391;51.306;22.680;2022-10-16T14:36:18;100262.00;;;19.40
70050;BMP180;57391;51.306;22.680;2022-10-16T14:39:17;100262.40;;;19.40
70050;BMP180;57391;51.306;22.680;2022-10-16T14:41:48;100264.00;;;19.40
70050;BMP180;57391;51.306;22.680;2022-10-16T14:44:27;100262.60;;;19.30
70050;BMP180;57391;51.306;22.680;2022-10-16T14:46:56;100258.80;;;19.30
70050;BMP180;57391;51.306;22.680;2022-10-16T14:49:26;100261.20;;;19.20
70050;BMP180;57391;51.306;22.680;2022-10-16T14:51:57;100266.20;;;19.18
70050;BMP180;57391;51.306;22.680;2022-10-16T14:54:24;100262.00;;;19.10
70050;BMP180;57391;51.306;22.680;2022-10-16T14:56:56;100268.20;;;19.10
70050;BMP180;57391;51.306;22.680;2022-10-16T14:59:39;100268.80;;;19.00
70050;BMP180;57391;51.306;22.680;2022-10-16T15:02:34;100266.60;;;19.00
70050;BMP180;57391;51.306;22.680;2022-10-16T15:05:20;100266.40;;;18.92
70050;BMP180;57391;51.306;22.680;2022-10-16T15:07:51;100269.00;;;18.90
70050;BMP180;57391;51.306;22.680;2022-10-16T15:10:22;100271.00;;;18.82
70050;BMP180;57391;51.306;22.680;2022-10-16T15:12:50;100273.40;;;18.80
70050;BMP180;57391;51.306;22.680;2022-10-16T15:15:51;100283.20;;;18.80
70050;BMP180;57391;51.306;22.680;2022-10-16T15:18:18;100288.80;;;18.74
70050;BMP180;57391;51.306;22.680;2022-10-16T15:20:51;100290.20;;;18.70
70050;BMP180;57391;51.306;22.680;2022-10-16T15:23:22;100293.60;;;18.70
70050;BMP180;57391;51.306;22.680;2022-10-16T15:25:55;100288.40;;;18.68
70050;BMP180;57391;51.306;22.680;2022-10-16T15:28:24;100292.20;;;18.60
70050;BMP180;57391;51.306;22.680;2022-10-16T15:30:55;100292.00;;;18.50
70050;BMP180;57391;51.306;22.680;2022-10-16T15:33:26;100293.20;;;18.42
70050;BMP180;57391;51.306;22.680;2022-10-16T15:35:55;100297.00;;;18.40
70050;BMP180;57391;51.306;22.680;2022-10-16T15:38:23;100304.00;;;18.30
70050;BMP180;57391;51.306;22.680;2022-10-16T15:40:50;100306.60;;;18.30
70050;BMP180;57391;51.306;22.680;2022-10-16T15:43:18;100316.40;;;18.20
70050;BMP180;57391;51.306;22.680;2022-10-16T15:46:10;100320.00;;;18.20
70050;BMP180;57391;51.306;22.680;2022-10-16T15:48:38;100317.00;;;18.10
70050;BMP180;57391;51.306;22.680;2022-10-16T15:51:07;100318.40;;;18.10
70050;BMP180;57391;51.306;22.680;2022-10-16T15:53:37;100322.60;;;18.00
70050;BMP180;57391;51.306;22.680;2022-10-16T15:56:08;100330.80;;;18.00